createdAt,value
2022-11-13T00:00:38.061Z,7.97
2022-11-13T00:03:04.703Z,8.13
2022-11-13T00:05:31.345Z,8.27
2022-11-13T00:07:57.964Z,7.68
2022-11-13T00:10:24.642Z,7.35
2022-11-13T00:12:51.273Z,7.72
2022-11-13T00:15:18.127Z,8.13
2022-11-13T00:17:44.747Z,7.45
2022-11-13T00:20:11.369Z,7.60
2022-11-13T00:22:38.031Z,7.88
2022-11-13T00:25:04.856Z,7.90
2022-11-13T00:27:32.078Z,7.18
2022-11-13T00:29:58.803Z,7.10
2022-11-13T00:32:26.567Z,7.55
2022-11-13T00:34:53.223Z,8.07
2022-11-13T00:37:19.872Z,7.90
2022-11-13T00:39:46.515Z,7.40
2022-11-13T00:42:13.325Z,7.82
2022-11-13T00:44:39.986Z,7.43
2022-11-13T00:47:06.773Z,7.40
2022-11-13T00:49:33.404Z,7.35
2022-11-13T00:52:00.246Z,8.77
2022-11-13T00:54:26.870Z,7.63
2022-11-13T00:56:53.506Z,7.32
2022-11-13T00:59:20.148Z,7.80
2022-11-13T01:01:46.802Z,7.40
2022-11-13T01:04:13.450Z,8.13
2022-11-13T01:06:40.176Z,8.93
2022-11-13T01:09:06.889Z,8.38
2022-11-13T01:11:33.524Z,8.88
2022-11-13T01:14:00.157Z,9.30
2022-11-13T01:16:28.183Z,8.77
2022-11-13T01:18:55.781Z,10.32
2022-11-13T01:21:25.581Z,9.55
2022-11-13T01:23:53.698Z,9.27
2022-11-13T01:26:26.936Z,9.60
2022-11-13T01:28:55.028Z,9.23
2022-11-13T01:31:24.352Z,9.55
2022-11-13T01:33:51.250Z,9.03
2022-11-13T01:36:21.679Z,9.88
2022-11-13T01:38:49.152Z,8.00
2022-11-13T01:41:23.061Z,7.97
2022-11-13T01:43:50.803Z,8.05
2022-11-13T01:46:25.668Z,8.43
2022-11-13T01:49:01.287Z,9.48
2022-11-13T01:51:36.166Z,9.82
2022-11-13T01:54:07.236Z,8.90
2022-11-13T01:56:33.924Z,9.13
2022-11-13T01:59:12.439Z,8.98
2022-11-13T02:01:39.176Z,9.27
2022-11-13T02:04:06.059Z,8.95
2022-11-13T02:06:40.457Z,8.98
2022-11-13T02:09:08.040Z,9.25
2022-11-13T02:11:34.684Z,9.27
2022-11-13T02:14:02.375Z,8.88
2022-11-13T02:16:32.120Z,9.20
2022-11-13T02:18:59.416Z,9.90
2022-11-13T02:21:37.949Z,9.63
2022-11-13T02:24:25.850Z,9.75
2022-11-13T02:26:55.485Z,10.65
2022-11-13T02:29:22.248Z,9.93
2022-11-13T02:31:48.885Z,9.25
2022-11-13T02:34:15.609Z,10.88
2022-11-13T02:36:42.328Z,9.50
2022-11-13T02:39:11.833Z,9.40
2022-11-13T02:41:38.561Z,9.07
2022-11-13T02:44:07.148Z,8.20
2022-11-13T02:46:34.648Z,9.32
2022-11-13T02:49:01.303Z,9.18
2022-11-13T02:51:27.960Z,8.70
2022-11-13T02:53:55.151Z,9.60
2022-11-13T02:56:22.074Z,10.40
2022-11-13T02:58:48.748Z,10.52
2022-11-13T03:01:15.410Z,9.82
2022-11-13T03:03:57.540Z,9.95
2022-11-13T03:06:24.942Z,10.50
2022-11-13T03:08:51.607Z,9.30
2022-11-13T03:11:18.343Z,9.50
2022-11-13T03:13:44.996Z,9.38
2022-11-13T03:16:14.707Z,8.82
2022-11-13T03:18:42.107Z,8.20
2022-11-13T03:21:11.304Z,7.85
2022-11-13T03:23:38.318Z,7.93
2022-11-13T03:26:09.995Z,8.15
2022-11-13T03:28:36.950Z,7.38
2022-11-13T03:31:04.372Z,7.45
2022-11-13T03:33:31.863Z,6.97
2022-11-13T03:35:58.742Z,7.80
2022-11-13T03:38:25.824Z,8.57
2022-11-13T03:40:52.844Z,8.35
2022-11-13T03:43:19.573Z,7.88
2022-11-13T03:45:47.367Z,8.25
2022-11-13T03:48:15.533Z,7.63
2022-11-13T03:50:50.227Z,7.65
2022-11-13T03:53:16.934Z,8.27
2022-11-13T03:55:44.622Z,7.82
2022-11-13T03:58:11.838Z,7.97
2022-11-13T04:00:39.933Z,7.28
2022-11-13T04:03:06.663Z,7.68
2022-11-13T04:05:33.551Z,8.43
2022-11-13T04:08:00.358Z,8.85
2022-11-13T04:10:27.224Z,9.23
2022-11-13T04:12:53.856Z,8.40
2022-11-13T04:15:20.616Z,8.82
2022-11-13T04:17:48.276Z,8.45
2022-11-13T04:20:15.369Z,9.05
2022-11-13T04:22:42.029Z,9.13
2022-11-13T04:25:09.449Z,8.43
2022-11-13T04:27:36.246Z,8.48
2022-11-13T04:30:04.293Z,7.85
2022-11-13T04:32:32.219Z,8.82
2022-11-13T04:34:58.956Z,9.25
2022-11-13T04:37:25.580Z,9.20
2022-11-13T04:39:52.315Z,8.05
2022-11-13T04:42:37.676Z,8.25
2022-11-13T04:45:04.884Z,8.70
2022-11-13T04:47:31.527Z,8.15
2022-11-13T04:49:58.158Z,8.50
2022-11-13T04:52:24.867Z,9.07
2022-11-13T04:54:51.584Z,8.65
2022-11-13T04:57:18.181Z,8.23
2022-11-13T04:59:44.802Z,8.90
2022-11-13T05:02:11.443Z,7.75
2022-11-13T05:04:38.065Z,8.95
2022-11-13T05:07:04.811Z,7.90
2022-11-13T05:09:31.508Z,8.45
2022-11-13T05:11:58.181Z,8.25
2022-11-13T05:14:24.871Z,9.07
2022-11-13T05:16:51.652Z,7.82
2022-11-13T05:19:18.326Z,9.13
2022-11-13T05:21:45.020Z,9.40
2022-11-13T05:24:11.916Z,8.27
2022-11-13T05:26:39.530Z,9.40
2022-11-13T05:29:06.485Z,8.30
2022-11-13T05:31:33.210Z,8.27
2022-11-13T05:34:05.317Z,8.73
2022-11-13T05:36:32.692Z,8.95
2022-11-13T05:38:59.460Z,9.07
2022-11-13T05:41:26.815Z,9.68
2022-11-13T05:43:59.053Z,8.40
2022-11-13T05:46:28.797Z,7.22
2022-11-13T05:48:57.913Z,7.95
2022-11-13T05:51:30.572Z,7.85
2022-11-13T05:53:57.366Z,7.65
2022-11-13T05:56:30.698Z,8.50
2022-11-13T05:58:58.413Z,7.50
2022-11-13T06:01:34.300Z,8.27
2022-11-13T06:04:01.846Z,8.90
2022-11-13T06:06:30.002Z,8.52
2022-11-13T06:08:58.071Z,8.13
2022-11-13T06:11:26.761Z,7.65
2022-11-13T06:13:54.303Z,8.35
2022-11-13T06:16:26.759Z,8.52
2022-11-13T06:19:02.470Z,7.32
2022-11-13T06:21:32.181Z,6.90
2022-11-13T06:23:59.755Z,6.53
2022-11-13T06:26:36.519Z,7.82
2022-11-13T06:29:05.067Z,6.80
2022-11-13T06:31:34.448Z,6.78
2022-11-13T06:34:01.918Z,6.53
2022-11-13T06:36:31.043Z,6.72
2022-11-13T06:38:58.060Z,6.10
2022-11-13T06:41:29.305Z,6.38
2022-11-13T06:44:01.244Z,6.50
2022-11-13T06:46:30.036Z,5.68
2022-11-13T06:48:57.373Z,6.30
2022-11-13T06:51:30.318Z,6.53
2022-11-13T06:53:58.133Z,6.28
2022-11-13T06:56:25.145Z,5.45
2022-11-13T06:58:52.159Z,5.47
2022-11-13T07:01:24.057Z,5.35
2022-11-13T07:03:50.794Z,5.68
2022-11-13T07:06:22.563Z,5.38
2022-11-13T07:08:49.244Z,5.15
2022-11-13T07:11:18.605Z,4.55
2022-11-13T07:13:45.799Z,4.37
2022-11-13T07:16:17.465Z,5.38
2022-11-13T07:18:52.666Z,4.28
2022-11-13T07:21:20.639Z,4.55
2022-11-13T07:23:48.993Z,4.05
2022-11-13T07:26:15.780Z,3.95
2022-11-13T07:28:42.534Z,4.22
2022-11-13T07:31:10.888Z,4.68
2022-11-13T07:33:37.548Z,5.38
2022-11-13T07:36:04.557Z,5.50
2022-11-13T07:38:31.914Z,4.40
2022-11-13T07:40:59.193Z,4.30
2022-11-13T07:43:25.912Z,5.75
2022-11-13T07:45:54.813Z,5.30
2022-11-13T07:48:23.079Z,4.53
2022-11-13T07:50:50.340Z,5.85
2022-11-13T07:53:18.120Z,5.93
2022-11-13T07:55:44.851Z,5.50
2022-11-13T07:58:11.844Z,5.07
2022-11-13T08:00:39.116Z,4.55
2022-11-13T08:03:12.134Z,3.88
2022-11-13T08:05:39.723Z,4.40
2022-11-13T08:08:06.742Z,4.60
2022-11-13T08:10:33.435Z,4.03
2022-11-13T08:13:06.741Z,3.20
2022-11-13T08:15:34.262Z,4.15
2022-11-13T08:18:02.707Z,4.05
2022-11-13T08:20:30.807Z,4.20
2022-11-13T08:22:59.361Z,3.92
2022-11-13T08:25:26.587Z,3.63
2022-11-13T08:27:54.168Z,3.80
2022-11-13T08:30:21.265Z,4.32
2022-11-13T08:32:48.585Z,3.53
2022-11-13T08:35:19.221Z,3.00
2022-11-13T08:37:46.896Z,4.05
2022-11-13T08:40:14.129Z,3.17
2022-11-13T08:42:40.762Z,3.05
2022-11-13T08:45:08.728Z,3.47
2022-11-13T08:47:35.671Z,3.42
2022-11-13T08:50:02.401Z,3.70
2022-11-13T08:52:29.144Z,3.53
2022-11-13T08:54:55.855Z,4.40
2022-11-13T08:57:22.477Z,4.32
2022-11-13T08:59:49.286Z,3.35
2022-11-13T09:02:16.274Z,3.13
2022-11-13T09:04:42.944Z,3.08
2022-11-13T09:07:10.128Z,3.30
2022-11-13T09:09:37.252Z,3.33
2022-11-13T09:12:04.573Z,3.17
2022-11-13T09:14:31.327Z,3.28
2022-11-13T09:16:58.419Z,2.80
2022-11-13T09:19:25.598Z,3.50
2022-11-13T09:21:52.816Z,3.72
2022-11-13T09:24:19.645Z,3.40
2022-11-13T09:26:46.354Z,3.40
2022-11-13T09:29:12.969Z,3.65
2022-11-13T09:31:41.156Z,2.90
2022-11-13T09:34:08.700Z,4.28
2022-11-13T09:36:36.096Z,3.00
2022-11-13T09:39:04.372Z,3.83
2022-11-13T09:41:37.652Z,3.30
2022-11-13T09:44:13.352Z,3.42
2022-11-13T09:47:08.922Z,3.47
2022-11-13T09:49:41.062Z,3.75
2022-11-13T09:52:15.628Z,3.50
2022-11-13T09:54:42.611Z,3.78
2022-11-13T09:57:46.057Z,2.97
2022-11-13T10:00:22.375Z,3.67
2022-11-13T10:03:08.276Z,3.33
2022-11-13T10:05:38.005Z,3.67
2022-11-13T10:08:19.389Z,3.40
2022-11-13T10:10:55.513Z,3.47
2022-11-13T10:13:32.753Z,3.63
2022-11-13T10:16:13.728Z,3.22
2022-11-13T10:18:41.669Z,3.60
2022-11-13T10:21:37.246Z,3.50
2022-11-13T10:24:14.367Z,4.32
2022-11-13T10:26:41.255Z,3.65
2022-11-13T10:29:19.904Z,4.38
2022-11-13T10:31:51.360Z,3.90
2022-11-13T10:34:19.259Z,4.15
2022-11-13T10:37:27.236Z,4.15
2022-11-13T10:39:53.869Z,3.55
2022-11-13T10:42:27.796Z,4.35
2022-11-13T10:45:00.001Z,4.30
2022-11-13T10:48:02.097Z,4.00
2022-11-13T10:50:27.791Z,4.72
2022-11-13T10:52:55.933Z,3.63
2022-11-13T10:55:34.542Z,4.55
2022-11-13T10:58:03.420Z,4.57
2022-11-13T11:00:36.194Z,5.10
2022-11-13T11:03:02.841Z,4.00
2022-11-13T11:05:29.541Z,4.43
2022-11-13T11:07:57.613Z,4.55
2022-11-13T11:10:33.757Z,4.95
2022-11-13T11:13:12.923Z,3.92
2022-11-13T11:15:48.659Z,4.78
2022-11-13T11:18:33.827Z,4.35
2022-11-13T11:21:06.141Z,4.70
2022-11-13T11:23:56.712Z,5.00
2022-11-13T11:26:43.233Z,4.97
2022-11-13T11:29:16.412Z,5.05
2022-11-13T11:31:46.053Z,5.47
2022-11-13T11:34:20.367Z,5.53
2022-11-13T11:37:17.004Z,5.38
2022-11-13T11:39:55.500Z,4.72
2022-11-13T11:42:49.419Z,5.38
2022-11-13T11:45:30.069Z,5.22
2022-11-13T11:47:58.747Z,4.95
2022-11-13T11:50:33.959Z,5.10
2022-11-13T11:53:09.941Z,5.55
2022-11-13T11:55:45.624Z,4.85
2022-11-13T11:58:43.003Z,5.05
2022-11-13T12:01:20.590Z,4.47
2022-11-13T12:04:10.207Z,4.85
2022-11-13T12:06:58.706Z,4.53
2022-11-13T12:09:52.039Z,4.35
2022-11-13T12:12:30.751Z,5.00
2022-11-13T12:15:08.839Z,4.53
2022-11-13T12:18:18.418Z,4.90
2022-11-13T12:21:23.569Z,4.43
2022-11-13T12:24:02.262Z,4.57
2022-11-13T12:26:31.504Z,4.80
2022-11-13T12:29:31.413Z,5.07
2022-11-13T12:32:03.864Z,4.30
2022-11-13T12:34:39.720Z,4.50
2022-11-13T12:37:12.354Z,4.07
2022-11-13T12:39:38.934Z,4.40
2022-11-13T12:42:27.843Z,4.55
2022-11-13T12:45:26.177Z,4.30
2022-11-13T12:47:52.916Z,5.22
2022-11-13T12:50:31.711Z,5.65
2022-11-13T12:53:00.432Z,5.50
2022-11-13T12:55:34.535Z,4.75
2022-11-13T12:58:18.557Z,4.95
2022-11-13T13:01:13.234Z,4.95
2022-11-13T13:04:17.818Z,5.07
2022-11-13T13:06:53.450Z,5.15
2022-11-13T13:09:44.150Z,5.30
2022-11-13T13:12:40.638Z,5.20
2022-11-13T13:15:10.061Z,5.07
2022-11-13T13:17:36.814Z,4.83
2022-11-13T13:20:15.488Z,5.38
2022-11-13T13:22:42.183Z,5.43
2022-11-13T13:25:27.690Z,5.47
2022-11-13T13:28:23.038Z,5.20
2022-11-13T13:31:15.349Z,5.47
2022-11-13T13:34:00.246Z,5.38
2022-11-13T13:36:42.069Z,5.43
2022-11-13T13:39:23.689Z,5.65
2022-11-13T13:42:07.176Z,4.70
2022-11-13T13:44:51.944Z,5.47
2022-11-13T13:47:39.056Z,5.35
2022-11-13T13:50:24.247Z,6.03
2022-11-13T13:52:55.681Z,5.22
2022-11-13T13:55:31.076Z,5.88
2022-11-13T13:58:02.698Z,6.22
2022-11-13T14:00:32.116Z,6.15
2022-11-13T14:02:59.032Z,6.47
2022-11-13T14:05:34.555Z,5.93
2022-11-13T14:08:07.346Z,6.07
2022-11-13T14:10:36.217Z,5.40
2022-11-13T14:13:03.693Z,5.93
2022-11-13T14:15:35.060Z,6.18
2022-11-13T14:20:52.991Z,6.10
2022-11-13T14:23:29.934Z,6.72
2022-11-13T14:25:57.290Z,6.10
2022-11-13T14:28:30.159Z,6.45
2022-11-13T14:31:08.059Z,6.93
2022-11-13T14:33:39.844Z,5.95
2022-11-13T14:36:06.890Z,6.10
2022-11-13T14:38:36.495Z,6.80
2022-11-13T14:41:04.291Z,7.38
2022-11-13T14:43:32.769Z,7.25
2022-11-13T14:46:04.750Z,6.45
2022-11-13T14:48:33.902Z,6.70
2022-11-13T14:51:02.922Z,6.40
2022-11-13T14:53:35.058Z,6.75
2022-11-13T14:56:05.234Z,6.90
2022-11-13T14:58:46.994Z,7.30
2022-11-13T15:01:18.203Z,6.93
2022-11-13T15:03:46.089Z,7.72
2022-11-13T15:06:22.105Z,8.10
2022-11-13T15:08:50.432Z,7.50
2022-11-13T15:11:19.419Z,7.50
2022-11-13T15:13:46.619Z,7.25
2022-11-13T15:16:19.880Z,6.32
2022-11-13T15:18:52.204Z,6.97
2022-11-13T15:21:19.055Z,6.95
2022-11-13T15:23:45.726Z,6.63
2022-11-13T15:26:12.938Z,7.78
2022-11-13T15:28:40.216Z,7.20
2022-11-13T15:31:20.420Z,8.00
2022-11-13T15:33:47.928Z,7.40
2022-11-13T15:36:14.888Z,8.00
2022-11-13T15:38:41.524Z,7.40
2022-11-13T15:41:32.940Z,7.28
2022-11-13T15:44:02.464Z,7.60
2022-11-13T15:46:29.079Z,7.80
2022-11-13T15:48:56.041Z,7.15
2022-11-13T15:51:43.262Z,7.45
2022-11-13T15:54:14.978Z,8.35
2022-11-13T15:56:42.772Z,8.18
2022-11-13T15:59:13.853Z,9.05
2022-11-13T16:01:41.307Z,8.10
2022-11-13T16:04:08.827Z,8.73
2022-11-13T16:06:36.118Z,8.85
2022-11-13T16:09:04.178Z,9.65
2022-11-13T16:11:32.722Z,11.45
2022-11-13T16:13:59.937Z,11.13
2022-11-13T16:16:31.340Z,9.25
2022-11-13T16:19:00.424Z,8.25
2022-11-13T16:21:27.580Z,9.45
2022-11-13T16:23:54.203Z,8.52
2022-11-13T16:26:25.971Z,9.52
2022-11-13T16:29:13.610Z,9.48
2022-11-13T16:31:41.578Z,9.15
2022-11-13T16:34:08.267Z,9.68
2022-11-13T16:36:35.141Z,10.50
2022-11-13T16:39:02.087Z,10.52
2022-11-13T16:41:31.342Z,9.55
2022-11-13T16:43:58.476Z,12.57
2022-11-13T16:46:29.232Z,10.52
2022-11-13T16:48:56.259Z,9.32
2022-11-13T16:51:23.264Z,10.88
2022-11-13T16:53:49.992Z,10.63
2022-11-13T16:56:24.635Z,9.45
2022-11-13T16:58:51.584Z,9.48
2022-11-13T17:01:19.945Z,9.23
2022-11-13T17:03:46.593Z,10.30
2022-11-13T17:06:26.575Z,10.07
2022-11-13T17:08:55.441Z,9.43
2022-11-13T17:11:23.872Z,9.23
2022-11-13T17:13:56.350Z,9.65
2022-11-13T17:16:25.308Z,9.10
2022-11-13T17:18:53.302Z,9.15
2022-11-13T17:21:21.944Z,8.27
2022-11-13T17:23:53.626Z,9.15
2022-11-13T17:26:20.246Z,9.32
2022-11-13T17:28:46.894Z,8.90
2022-11-13T17:31:13.554Z,9.93
2022-11-13T17:33:40.284Z,9.95
2022-11-13T17:36:08.964Z,11.25
2022-11-13T17:38:36.040Z,10.55
2022-11-13T17:41:10.467Z,10.35
2022-11-13T17:43:38.380Z,11.18
2022-11-13T17:46:06.287Z,9.32
2022-11-13T17:48:34.108Z,13.20
2022-11-13T17:51:02.966Z,11.80
2022-11-13T17:53:30.708Z,9.43
2022-11-13T17:55:59.807Z,8.48
2022-11-13T17:58:27.567Z,8.48
2022-11-13T18:00:54.864Z,9.00
2022-11-13T18:03:21.540Z,6.25
2022-11-13T18:05:48.180Z,6.05
2022-11-13T18:08:15.528Z,5.80
2022-11-13T18:10:43.058Z,4.95
2022-11-13T18:13:10.059Z,5.75
2022-11-13T18:15:38.892Z,5.38
2022-11-13T18:18:07.132Z,5.47
2022-11-13T18:20:35.185Z,6.78
2022-11-13T18:23:02.017Z,5.45
2022-11-13T18:25:28.880Z,5.18
2022-11-13T18:27:55.640Z,5.13
2022-11-13T18:30:22.780Z,5.80
2022-11-13T18:32:50.279Z,5.75
2022-11-13T18:35:17.092Z,5.90
2022-11-13T18:37:43.735Z,6.25
2022-11-13T18:40:10.935Z,6.07
2022-11-13T18:42:37.663Z,5.72
2022-11-13T18:45:06.145Z,5.80
2022-11-13T18:47:33.050Z,5.75
2022-11-13T18:49:59.667Z,6.15
2022-11-13T18:52:26.388Z,6.50
2022-11-13T18:54:53.023Z,6.18
2022-11-13T18:57:19.659Z,5.70
2022-11-13T18:59:46.300Z,5.18
2022-11-13T19:02:13.291Z,5.47
2022-11-13T19:04:39.999Z,5.95
2022-11-13T19:07:07.877Z,5.85
2022-11-13T19:09:34.774Z,5.53
2022-11-13T19:12:01.966Z,5.07
2022-11-13T19:14:28.595Z,4.68
2022-11-13T19:16:55.250Z,4.72
2022-11-13T19:19:23.780Z,4.63
2022-11-13T19:21:51.025Z,4.60
2022-11-13T19:24:18.064Z,4.90
2022-11-13T19:26:45.152Z,4.95
2022-11-13T19:29:12.340Z,5.35
2022-11-13T19:31:39.164Z,5.60
2022-11-13T19:34:07.554Z,5.55
2022-11-13T19:36:35.693Z,6.00
2022-11-13T19:39:03.057Z,6.57
2022-11-13T19:41:30.235Z,5.75
2022-11-13T19:43:59.743Z,6.80
2022-11-13T19:46:27.011Z,5.22
2022-11-13T19:48:53.660Z,6.20
2022-11-13T19:51:22.741Z,6.30
2022-11-13T19:53:54.179Z,5.75
2022-11-13T19:56:22.481Z,6.43
2022-11-13T19:58:50.891Z,6.13
2022-11-13T20:01:20.026Z,6.75
2022-11-13T20:03:47.036Z,5.68
2022-11-13T20:06:16.402Z,6.43
2022-11-13T20:08:43.164Z,5.83
2022-11-13T20:11:11.468Z,6.78
2022-11-13T20:13:41.494Z,5.88
2022-11-13T20:16:11.604Z,7.22
2022-11-13T20:18:38.954Z,7.07
2022-11-13T20:21:06.292Z,6.50
2022-11-13T20:23:33.294Z,6.47
2022-11-13T20:26:02.233Z,6.88
2022-11-13T20:28:29.813Z,7.97
2022-11-13T20:31:08.059Z,7.60
2022-11-13T20:33:35.369Z,7.07
2022-11-13T20:36:03.086Z,7.55
2022-11-13T20:38:30.257Z,6.80
2022-11-13T20:40:57.317Z,7.57
2022-11-13T20:43:24.435Z,6.80
2022-11-13T20:45:51.083Z,25.00
2022-11-13T20:48:17.806Z,11.23
2022-11-13T20:50:44.806Z,9.07
2022-11-13T20:53:11.528Z,9.75
2022-11-13T20:55:38.832Z,9.00
2022-11-13T20:58:05.636Z,9.35
2022-11-13T21:00:32.340Z,9.27
2022-11-13T21:02:58.995Z,9.73
2022-11-13T21:05:26.776Z,9.15
2022-11-13T21:07:53.691Z,8.98
2022-11-13T21:10:20.310Z,8.40
2022-11-13T21:12:46.923Z,8.73
2022-11-13T21:15:13.584Z,8.93
2022-11-13T21:17:40.242Z,8.05
2022-11-13T21:20:07.863Z,8.35
2022-11-13T21:22:34.570Z,7.47
2022-11-13T21:25:01.177Z,7.32
2022-11-13T21:27:27.811Z,7.63
2022-11-13T21:29:54.444Z,7.47
2022-11-13T21:32:21.102Z,7.50
2022-11-13T21:34:47.741Z,8.82
2022-11-13T21:37:14.568Z,10.27
2022-11-13T21:39:41.203Z,10.02
2022-11-13T21:42:07.886Z,10.38
2022-11-13T21:44:34.581Z,10.77
2022-11-13T21:47:01.301Z,10.35
2022-11-13T21:49:27.950Z,10.38
2022-11-13T21:51:54.598Z,8.50
2022-11-13T21:54:21.243Z,8.40
2022-11-13T21:56:47.871Z,7.70
2022-11-13T21:59:15.211Z,8.68
2022-11-13T22:01:42.059Z,7.32
2022-11-13T22:04:08.724Z,6.80
2022-11-13T22:06:36.365Z,5.95
2022-11-13T22:09:07.939Z,6.10
2022-11-13T22:11:36.883Z,5.63
2022-11-13T22:14:04.606Z,5.25
2022-11-13T22:16:33.099Z,4.97
2022-11-13T22:19:03.423Z,5.15
2022-11-13T22:21:31.283Z,5.65
2022-11-13T22:23:59.237Z,4.78
2022-11-13T22:26:27.477Z,5.65
2022-11-13T22:28:54.924Z,5.30
2022-11-13T22:31:24.153Z,6.10
2022-11-13T22:33:54.860Z,6.40
2022-11-13T22:36:34.229Z,6.53
2022-11-13T22:39:01.714Z,6.32
2022-11-13T22:41:31.178Z,6.82
2022-11-13T22:44:03.856Z,7.60
2022-11-13T22:46:32.985Z,7.57
